createdAt,value
2023-03-22T00:22:42.304Z,96664.56
2023-03-22T00:27:34.013Z,96667.31
2023-03-22T00:32:25.912Z,96656.81
2023-03-22T00:37:21.861Z,96639.91
2023-03-22T00:42:13.589Z,96637.63
2023-03-22T00:47:05.339Z,96636.78
2023-03-22T00:51:57.118Z,96641.16
2023-03-22T00:56:49.783Z,96637.66
2023-03-22T01:01:41.752Z,96637.41
2023-03-22T01:06:34.697Z,96632.81
2023-03-22T01:11:27.308Z,96632.81
2023-03-22T01:16:19.018Z,96629.94
2023-03-22T01:21:11.188Z,96614.28
2023-03-22T01:26:03.653Z,96616.28
2023-03-22T01:30:56.316Z,96609.53
2023-03-22T01:35:48.402Z,96610.09
2023-03-22T01:40:40.746Z,96605.38
2023-03-22T01:45:49.883Z,96604.28
2023-03-22T01:50:50.750Z,96589.47
2023-03-22T01:55:42.784Z,96595.38
2023-03-22T02:00:34.599Z,96594.09
2023-03-22T02:05:27.458Z,96603.28
2023-03-22T02:10:24.606Z,96605.38
2023-03-22T02:15:34.054Z,96611.72
2023-03-22T02:20:53.458Z,96604.75
2023-03-22T02:26:49.812Z,96592.97
2023-03-22T02:32:18.961Z,96596.00
2023-03-22T02:37:42.380Z,96581.56
2023-03-22T02:42:56.368Z,96586.97
2023-03-22T02:48:14.454Z,96581.75
2023-03-22T02:53:38.154Z,96576.53
2023-03-22T02:58:39.600Z,96579.38
2023-03-22T03:03:37.507Z,96580.00
2023-03-22T03:08:30.578Z,96569.75
2023-03-22T03:13:22.817Z,96571.53
2023-03-22T03:18:58.825Z,96574.59
2023-03-22T03:24:06.865Z,96576.25
2023-03-22T03:29:20.368Z,96575.91
2023-03-22T03:34:35.994Z,96583.34
2023-03-22T03:39:34.670Z,96587.19
2023-03-22T03:44:28.565Z,96588.84
2023-03-22T03:49:23.015Z,96589.28
2023-03-22T03:54:14.721Z,96590.91
2023-03-22T03:59:08.166Z,96589.50
2023-03-22T04:03:59.877Z,96583.53
2023-03-22T04:08:53.587Z,96590.94
2023-03-22T04:13:45.504Z,96591.34
2023-03-22T04:18:38.037Z,96596.22
2023-03-22T04:23:29.748Z,96599.81
2023-03-22T04:28:21.457Z,96600.25
2023-03-22T04:33:13.136Z,96601.06
2023-03-22T04:38:04.888Z,96605.88
2023-03-22T04:42:57.513Z,96603.47
2023-03-22T04:47:49.734Z,96598.84
2023-03-22T05:02:58.152Z,96606.31
2023-03-22T05:07:49.929Z,96605.31
2023-03-22T05:12:41.591Z,96608.91
2023-03-22T05:17:33.932Z,96611.91
2023-03-22T05:22:25.600Z,96604.50
2023-03-22T05:27:17.332Z,96607.28
2023-03-22T05:32:09.799Z,96603.84
2023-03-22T05:37:02.395Z,96601.72
2023-03-22T05:41:54.114Z,96612.22
2023-03-22T05:46:45.858Z,96616.06
2023-03-22T05:51:41.442Z,96613.88
2023-03-22T05:56:33.519Z,96607.84
2023-03-22T06:01:25.363Z,96615.84
2023-03-22T06:06:17.178Z,96616.44
2023-03-22T06:11:09.389Z,96616.84
2023-03-22T06:16:03.527Z,96618.91
2023-03-22T06:20:55.271Z,96620.34
2023-03-22T06:25:48.905Z,96617.19
2023-03-22T06:30:41.471Z,96618.88
2023-03-22T06:35:35.103Z,96616.09
2023-03-22T06:40:27.375Z,96617.91
2023-03-22T06:45:19.500Z,96619.34
2023-03-22T06:50:11.938Z,96619.94
2023-03-22T06:55:04.057Z,96618.31
2023-03-22T06:59:55.811Z,96613.59
2023-03-22T07:04:47.512Z,96623.28
2023-03-22T07:09:41.506Z,96624.56
2023-03-22T07:14:36.014Z,96628.69
2023-03-22T07:19:27.904Z,96625.97
2023-03-22T07:24:19.602Z,96633.59
2023-03-22T07:29:11.298Z,96627.59
2023-03-22T07:34:04.819Z,96630.44
2023-03-22T07:38:58.544Z,96630.25
2023-03-22T07:43:58.206Z,96631.34
2023-03-22T07:48:51.884Z,96628.53
2023-03-22T07:53:43.564Z,96619.28
2023-03-22T07:58:42.890Z,96614.28
2023-03-22T08:03:36.487Z,96609.09
2023-03-22T08:08:28.166Z,96607.25
2023-03-22T08:13:19.880Z,96609.94
2023-03-22T08:18:11.648Z,96612.28
2023-03-22T08:23:04.236Z,96602.88
2023-03-22T08:33:02.392Z,96607.78
2023-03-22T08:37:57.006Z,96602.41
2023-03-22T08:42:54.307Z,96602.28
2023-03-22T08:47:48.293Z,96610.66
2023-03-22T08:52:40.268Z,96606.28
2023-03-22T08:57:32.706Z,96611.72
2023-03-22T09:02:25.467Z,96605.28
2023-03-22T09:07:28.061Z,96606.78
2023-03-22T09:12:20.310Z,96613.72
2023-03-22T09:17:12.353Z,96605.91
2023-03-22T09:22:04.092Z,96605.50
2023-03-22T09:26:57.745Z,96595.66
2023-03-22T09:31:49.543Z,96602.88
2023-03-22T09:36:41.259Z,96601.91
2023-03-22T09:41:50.842Z,96606.06
2023-03-22T09:46:51.313Z,96596.84
2023-03-22T09:57:12.580Z,96593.91
2023-03-22T10:20:00.540Z,96564.28
2023-03-22T11:06:32.968Z,96516.00
2023-03-22T11:11:44.638Z,96501.19
2023-03-22T11:17:09.835Z,96495.66
2023-03-22T11:38:41.414Z,96464.69
2023-03-22T11:43:52.694Z,96468.28
2023-03-22T11:54:23.065Z,96451.72
2023-03-22T12:04:40.163Z,96444.84
2023-03-22T12:15:05.600Z,96440.31
2023-03-22T12:20:25.668Z,96426.50
2023-03-22T13:03:16.569Z,96381.47
2023-03-22T13:08:08.934Z,96383.09
2023-03-22T13:23:57.337Z,96364.84
2023-03-22T13:29:12.809Z,96352.59
2023-03-22T13:34:14.476Z,96360.75
2023-03-22T13:39:14.211Z,96356.53
2023-03-22T13:49:56.372Z,96352.78
2023-03-22T13:54:52.602Z,96340.69
2023-03-22T14:00:20.554Z,96342.00
2023-03-22T14:05:23.476Z,96339.41
2023-03-22T14:10:39.794Z,96324.69
2023-03-22T14:15:38.652Z,96318.50
